createdAt,value
2023-03-15T00:02:10.547Z,98.12
2023-03-15T00:07:32.467Z,97.09
2023-03-15T00:12:54.638Z,98.18
2023-03-15T00:18:18.158Z,97.53
2023-03-15T00:23:40.075Z,96.74
2023-03-15T00:29:01.966Z,96.14
2023-03-15T00:34:23.919Z,97.08
2023-03-15T00:39:46.596Z,97.11
2023-03-15T00:45:08.789Z,95.78
2023-03-15T00:50:30.685Z,95.30
2023-03-15T00:55:52.538Z,93.73
2023-03-15T01:01:21.921Z,91.29
2023-03-15T01:06:43.814Z,91.94
2023-03-15T01:12:05.988Z,92.22
2023-03-15T01:17:28.090Z,93.03
2023-03-15T01:22:50.066Z,92.58
2023-03-15T01:28:11.949Z,91.19
2023-03-15T01:33:33.945Z,91.09
2023-03-15T01:38:55.924Z,94.43
2023-03-15T01:44:19.427Z,93.70
2023-03-15T01:49:42.827Z,95.32
2023-03-15T01:55:13.785Z,95.50
2023-03-15T02:00:36.943Z,95.20
2023-03-15T02:06:03.896Z,94.71
2023-03-15T02:11:27.468Z,96.45
2023-03-15T02:16:49.682Z,97.58
2023-03-15T02:22:43.866Z,97.10
2023-03-15T02:28:07.967Z,96.87
2023-03-15T02:33:43.039Z,95.47
2023-03-15T02:39:19.913Z,94.75
2023-03-15T02:44:44.885Z,94.80
2023-03-15T02:50:07.172Z,93.50
2023-03-15T02:55:30.120Z,92.43
2023-03-15T03:00:53.230Z,91.97
2023-03-15T03:06:17.500Z,90.91
2023-03-15T03:11:39.381Z,91.81
2023-03-15T03:17:01.282Z,91.20
2023-03-15T03:22:23.645Z,90.84
2023-03-15T03:27:45.534Z,90.86
2023-03-15T03:33:07.377Z,90.35
2023-03-15T03:38:29.286Z,89.35
2023-03-15T03:43:51.210Z,89.33
2023-03-15T03:49:13.132Z,89.96
2023-03-15T03:54:34.966Z,89.49
2023-03-15T03:59:56.843Z,88.54
2023-03-15T04:05:18.736Z,88.63
2023-03-15T04:10:40.615Z,88.53
2023-03-15T04:16:02.495Z,88.43
2023-03-15T04:21:24.429Z,88.48
2023-03-15T04:26:46.304Z,87.94
2023-03-15T04:32:08.667Z,88.65
2023-03-15T04:37:30.904Z,87.27
2023-03-15T04:42:54.272Z,86.89
2023-03-15T04:48:16.137Z,86.96
2023-03-15T04:53:38.030Z,86.49
2023-03-15T04:58:59.892Z,85.08
2023-03-15T05:04:21.788Z,85.56
2023-03-15T05:09:43.685Z,84.36
2023-03-15T05:15:06.177Z,84.06
2023-03-15T05:20:28.098Z,83.37
2023-03-15T05:25:54.991Z,81.28
2023-03-15T05:31:16.869Z,80.64
2023-03-15T05:36:39.066Z,80.10
2023-03-15T05:42:01.314Z,80.09
2023-03-15T05:47:23.722Z,78.86
2023-03-15T05:52:45.629Z,78.77
2023-03-15T05:58:07.536Z,79.51
2023-03-15T06:03:30.759Z,78.85
2023-03-15T06:08:52.745Z,78.71
2023-03-15T06:14:14.594Z,77.92
2023-03-15T06:19:37.951Z,76.80
2023-03-15T06:24:59.958Z,76.12
2023-03-15T06:30:21.934Z,74.93
2023-03-15T06:35:43.878Z,73.98
2023-03-15T06:41:05.735Z,73.55
2023-03-15T06:46:27.706Z,72.13
2023-03-15T06:51:49.562Z,71.75
2023-03-15T06:57:11.546Z,71.13
2023-03-15T07:02:33.450Z,70.57
2023-03-15T07:07:55.324Z,69.89
2023-03-15T07:13:18.377Z,69.75
2023-03-15T07:18:40.313Z,68.41
2023-03-15T07:24:02.180Z,68.09
2023-03-15T07:29:24.674Z,65.84
2023-03-15T07:34:46.586Z,65.69
2023-03-15T07:40:09.257Z,64.22
2023-03-15T07:45:31.138Z,61.55
2023-03-15T07:50:52.986Z,63.82
2023-03-15T07:56:15.076Z,65.28
2023-03-15T08:01:36.974Z,65.04
2023-03-15T08:06:58.859Z,64.24
2023-03-15T08:12:20.748Z,61.62
2023-03-15T08:17:43.218Z,59.69
2023-03-15T08:23:06.167Z,56.68
2023-03-15T08:28:27.993Z,58.46
2023-03-15T08:33:49.832Z,55.50
2023-03-15T08:39:11.683Z,56.13
2023-03-15T08:44:35.853Z,57.67
2023-03-15T08:49:58.224Z,58.84
2023-03-15T08:55:20.289Z,55.93
2023-03-15T09:00:42.178Z,55.69
2023-03-15T09:06:04.128Z,54.35
2023-03-15T09:11:25.990Z,51.94
2023-03-15T09:16:47.982Z,48.70
2023-03-15T09:22:16.785Z,48.72
2023-03-15T09:27:46.066Z,47.10
2023-03-15T09:33:08.611Z,45.22
2023-03-15T09:38:30.481Z,44.54
2023-03-15T09:44:12.375Z,40.78
2023-03-15T09:49:41.177Z,39.81
2023-03-15T09:55:14.761Z,40.71
2023-03-15T10:00:38.599Z,37.33
2023-03-15T10:06:05.958Z,35.64
2023-03-15T10:11:50.002Z,32.52
2023-03-15T10:17:14.080Z,35.83
2023-03-15T10:22:45.165Z,39.17
2023-03-15T10:28:31.221Z,38.94
2023-03-15T10:33:55.557Z,40.32
2023-03-15T10:39:17.525Z,40.93
2023-03-15T10:44:39.396Z,40.52
2023-03-15T10:50:01.277Z,40.16
2023-03-15T10:55:33.627Z,42.23
2023-03-15T11:01:06.881Z,41.13
2023-03-15T11:06:29.383Z,42.49
2023-03-15T11:12:00.096Z,42.53
2023-03-15T11:17:26.460Z,42.25
2023-03-15T11:22:48.624Z,42.14
2023-03-15T11:28:19.843Z,42.14
2023-03-15T11:34:08.956Z,41.79
2023-03-15T11:39:43.279Z,41.86
2023-03-15T11:45:16.373Z,41.99
2023-03-15T11:50:40.176Z,42.92
2023-03-15T11:56:22.998Z,42.18
2023-03-15T12:01:58.343Z,43.05
2023-03-15T12:07:20.142Z,44.10
2023-03-15T12:12:46.132Z,43.50
2023-03-15T12:18:16.182Z,42.73
2023-03-15T12:23:45.615Z,42.63
2023-03-15T12:29:14.779Z,41.69
2023-03-15T12:34:42.814Z,42.47
2023-03-15T12:40:16.585Z,44.02
2023-03-15T12:45:43.742Z,44.36
2023-03-15T12:51:09.082Z,45.40
2023-03-15T12:56:38.757Z,44.69
2023-03-15T13:02:02.857Z,44.58
2023-03-15T13:07:50.294Z,45.89
2023-03-15T13:13:35.922Z,44.78
2023-03-15T13:19:26.707Z,45.20
2023-03-15T13:25:00.811Z,45.10
2023-03-15T13:30:31.799Z,45.03
2023-03-15T13:36:02.355Z,43.72
2023-03-15T13:41:29.629Z,43.00
2023-03-15T13:46:52.943Z,43.33
2023-03-15T13:52:14.905Z,43.61
2023-03-15T13:57:37.035Z,44.11
2023-03-15T14:03:05.095Z,44.70
2023-03-15T14:08:35.147Z,43.62
2023-03-15T14:14:00.428Z,44.21
2023-03-15T14:19:26.594Z,43.76
2023-03-15T14:24:51.460Z,43.42
2023-03-15T14:30:25.074Z,43.84
2023-03-15T14:35:46.941Z,43.86
2023-03-15T14:41:32.520Z,44.35
2023-03-15T14:46:54.887Z,45.56
2023-03-15T14:52:16.874Z,45.43
2023-03-15T14:57:38.839Z,45.14
2023-03-15T15:03:01.201Z,45.10
2023-03-15T15:08:23.276Z,44.97
2023-03-15T15:13:45.184Z,44.71
2023-03-15T15:19:07.898Z,45.04
2023-03-15T15:24:30.919Z,44.43
2023-03-15T15:29:52.821Z,45.07
2023-03-15T15:35:17.023Z,45.48
2023-03-15T15:40:40.094Z,45.70
2023-03-15T15:46:02.055Z,45.75
2023-03-15T15:51:30.510Z,45.89
2023-03-15T15:56:55.883Z,46.43
2023-03-15T16:02:17.913Z,46.87
2023-03-15T16:07:39.839Z,47.51
2023-03-15T16:13:04.113Z,48.02
2023-03-15T16:18:25.938Z,48.99
2023-03-15T16:23:55.218Z,49.04
2023-03-15T16:29:23.470Z,49.38
2023-03-15T16:34:45.446Z,50.20
2023-03-15T16:40:25.305Z,51.31
2023-03-15T16:45:47.196Z,52.20
2023-03-15T16:51:12.928Z,54.22
2023-03-15T16:56:36.348Z,54.90
2023-03-15T17:01:58.241Z,54.87
2023-03-15T17:07:28.290Z,55.58
2023-03-15T17:12:55.039Z,56.75
2023-03-15T17:18:19.142Z,57.33
2023-03-15T17:23:41.840Z,57.57
2023-03-15T17:29:04.214Z,58.31
2023-03-15T17:34:26.117Z,58.21
2023-03-15T17:39:48.136Z,59.39
2023-03-15T17:45:21.614Z,60.36
2023-03-15T17:50:44.522Z,60.40
2023-03-15T17:56:06.716Z,61.05
2023-03-15T18:01:29.179Z,60.79
2023-03-15T18:06:51.071Z,62.39
2023-03-15T18:12:15.240Z,62.96
2023-03-15T18:17:37.459Z,63.35
2023-03-15T18:22:59.343Z,63.92
2023-03-15T18:28:21.223Z,64.47
2023-03-15T18:33:44.084Z,64.33
2023-03-15T18:39:06.016Z,64.73
2023-03-15T18:44:27.906Z,65.01
2023-03-15T18:49:53.182Z,65.24
2023-03-15T18:55:19.252Z,65.29
2023-03-15T19:00:41.233Z,66.06
2023-03-15T19:06:08.798Z,65.84
2023-03-15T19:11:31.003Z,66.60
2023-03-15T19:16:53.027Z,66.96
2023-03-15T19:22:14.955Z,67.27
2023-03-15T19:27:37.321Z,66.91
2023-03-15T19:32:59.443Z,66.69
2023-03-15T19:38:21.460Z,66.73
2023-03-15T19:43:43.362Z,67.35
2023-03-15T19:49:05.366Z,67.88
2023-03-15T19:54:27.308Z,67.74
2023-03-15T19:59:49.307Z,68.58
2023-03-15T20:05:13.670Z,68.10
2023-03-15T20:10:35.964Z,67.56
2023-03-15T20:15:57.912Z,67.48
2023-03-15T20:21:19.980Z,67.84
2023-03-15T20:26:41.884Z,67.96
2023-03-15T20:32:04.434Z,67.61
2023-03-15T20:37:28.297Z,67.05
2023-03-15T20:42:50.144Z,67.50
2023-03-15T20:48:12.066Z,67.08
2023-03-15T20:53:35.746Z,66.98
2023-03-15T20:58:57.647Z,66.64
2023-03-15T21:04:19.535Z,67.03
2023-03-15T21:09:41.510Z,66.54
2023-03-15T21:15:03.771Z,66.57
2023-03-15T21:20:25.930Z,66.89
2023-03-15T21:25:54.081Z,66.88
2023-03-15T21:31:16.373Z,66.80
2023-03-15T21:36:38.331Z,66.92
2023-03-15T21:42:00.817Z,66.67
2023-03-15T21:47:22.745Z,67.70
2023-03-15T21:52:44.659Z,67.68
2023-03-15T21:58:06.533Z,68.39
2023-03-15T22:03:28.567Z,68.50
2023-03-15T22:08:50.534Z,68.96
2023-03-15T22:14:12.499Z,68.94
2023-03-15T22:19:34.372Z,69.63
2023-03-15T22:24:56.242Z,70.08
2023-03-15T22:30:18.350Z,70.12
2023-03-15T22:35:40.371Z,69.78
2023-03-15T22:41:07.764Z,70.52
2023-03-15T22:46:29.779Z,69.98
2023-03-15T22:51:51.684Z,70.80
2023-03-15T22:57:13.605Z,71.28
2023-03-15T23:02:35.553Z,71.36
2023-03-15T23:07:57.519Z,72.28
2023-03-15T23:13:19.459Z,71.70
2023-03-15T23:18:42.153Z,72.61
2023-03-15T23:24:04.287Z,73.26
2023-03-15T23:29:26.279Z,73.54
2023-03-15T23:34:48.233Z,73.79
2023-03-15T23:40:11.123Z,73.89
2023-03-15T23:45:32.995Z,74.19
2023-03-15T23:50:56.518Z,74.69
2023-03-15T23:56:18.367Z,74.84
